Terminal Aerodrome Forecast
Issued by NWS Twin Cities, MN

Home | Current Version | Previous Version | Text Only | Print | Product List | Glossary Off
Versions: 1 2 3 4 5 6 7 8 9 10 11 12 13 14 15 16 17 18 19 20 21 22 23 24 25 26 27 28

000
FTUS43 KMPX 031325 CCA
TAFMSP
TAF COR
KMSP 031325Z 0313/0418 14006KT 1 1/2SM -SN BR OVC020
      TEMPO 0313/0316 1/2SM SN FZFG VV008
     FM031700 29013G24KT 5SM -SN BR OVC015
     FM032000 31021G30KT P6SM FEW020 BKN090
     FM040100 29017G24KT P6SM SKC
     FM040800 29012KT P6SM SKC=

USA.gov is the U.S. government's official web portal to all federal, state and local government web resources and services.